Time;durP1;ratioP1;P1;durP2;ratioP2;P2;SDS_P1;SDS_P2;PMS_P1;PMS_P2;Temp;Humidity;BMP_temperature;BMP_pressure;BME280_temperature;BME280_humidity;BME280_pressure;Samples;Min_cycle;Max_cycle;Signal;HPM_P1;HPM_P2
2021/07/28 00:01:58;;;;;;;9.77;8.80;;;21.10;99.90;;;;;;5037414;28;20435;-84
2021/07/28 00:04:27;;;;;;;6.97;5.00;;;21.10;99.90;;;;;;5036882;28;20483;-85
2021/07/28 00:06:55;;;;;;;5.03;4.53;;;21.00;99.90;;;;;;5036314;28;20413;-84
2021/07/28 00:09:24;;;;;;;8.33;5.90;;;21.00;99.90;;;;;;5024552;28;20479;-85
2021/07/28 00:11:52;;;;;;;8.20;5.57;;;20.90;99.90;;;;;;5021783;28;20449;-85
2021/07/28 00:14:21;;;;;;;5.53;5.03;;;20.90;99.90;;;;;;5022692;28;20502;-83
2021/07/28 00:16:49;;;;;;;5.57;5.07;;;20.90;99.90;;;;;;5020356;28;20448;-84
2021/07/28 00:19:20;;;;;;;5.50;5.00;;;20.80;99.90;;;;;;5021780;28;20384;-83
2021/07/28 00:24:36;;;;;;;8.20;4.90;;;20.90;99.90;;;;;;5021139;28;20419;-84
2021/07/28 00:27:06;;;;;;;6.73;4.83;;;20.80;99.90;;;;;;5021836;28;20407;-85
2021/07/28 00:29:37;;;;;;;6.43;5.77;;;20.80;99.90;;;;;;5022018;28;20536;-84
2021/07/28 00:32:06;;;;;;;5.47;4.50;;;20.80;99.90;;;;;;5026225;28;20922;-84
2021/07/28 00:34:34;;;;;;;6.03;5.37;;;20.80;99.90;;;;;;5028083;28;20481;-84
2021/07/28 00:37:02;;;;;;;6.70;5.43;;;20.80;99.90;;;;;;5034774;28;20471;-84
2021/07/28 00:39:30;;;;;;;6.23;5.73;;;20.70;99.90;;;;;;5034085;28;20443;-84
2021/07/28 00:42:00;;;;;;;6.63;5.50;;;20.70;99.90;;;;;;5031290;28;20770;-83
2021/07/28 00:44:28;;;;;;;5.23;4.60;;;20.70;99.90;;;;;;5022703;28;20419;-84
2021/07/28 00:46:56;;;;;;;7.10;5.40;;;20.60;99.90;;;;;;5021108;28;20454;-84
2021/07/28 00:49:25;;;;;;;8.40;5.27;;;20.70;99.90;;;;;;5021385;28;20500;-84
2021/07/28 00:51:55;;;;;;;6.97;6.20;;;20.60;99.90;;;;;;5024316;28;20408;-85
2021/07/28 00:54:24;;;;;;;7.83;6.10;;;20.60;99.90;;;;;;5021218;28;20485;-84
2021/07/28 00:56:52;;;;;;;7.57;5.37;;;20.50;99.90;;;;;;5032831;28;20883;-84
2021/07/28 00:59:22;;;;;;;6.73;5.57;;;20.40;99.90;;;;;;5032449;28;20445;-84
2021/07/28 01:01:52;;;;;;;6.90;5.63;;;20.40;99.90;;;;;;5015270;28;20415;-84
2021/07/28 01:04:21;;;;;;;6.33;4.80;;;20.40;99.90;;;;;;5015811;28;20403;-83
2021/07/28 01:06:49;;;;;;;7.10;6.20;;;20.40;99.90;;;;;;5031777;28;20419;-84
2021/07/28 01:09:17;;;;;;;5.83;5.33;;;20.30;99.90;;;;;;5016884;28;20414;-84
2021/07/28 01:11:46;;;;;;;5.63;5.13;;;20.40;99.90;;;;;;5020741;28;20730;-84
2021/07/28 01:14:15;;;;;;;6.17;5.23;;;20.30;99.90;;;;;;5015632;28;20464;-84
2021/07/28 01:16:47;;;;;;;6.30;5.70;;;20.20;99.90;;;;;;5014707;28;20415;-84
2021/07/28 01:19:19;;;;;;;5.90;5.20;;;20.00;99.90;;;;;;5014073;28;20411;-83
2021/07/28 01:21:50;;;;;;;6.03;5.13;;;19.90;99.90;;;;;;5013666;28;20443;-83
2021/07/28 01:24:21;;;;;;;5.77;5.20;;;19.80;99.90;;;;;;5014807;28;20437;-84
2021/07/28 01:26:49;;;;;;;5.53;4.90;;;19.70;99.90;;;;;;5014306;28;20551;-83
2021/07/28 01:29:18;;;;;;;7.53;5.57;;;19.50;99.90;;;;;;5030464;28;20427;-84
2021/07/28 01:31:49;;;;;;;6.40;5.43;;;19.50;99.90;;;;;;5026477;28;20609;-84
2021/07/28 01:34:17;;;;;;;6.97;5.37;;;19.50;99.90;;;;;;5028214;28;20482;-83
2021/07/28 01:36:48;;;;;;;6.97;5.20;;;19.60;99.90;;;;;;5026551;28;20399;-84
2021/07/28 01:39:16;;;;;;;6.70;5.87;;;19.40;99.90;;;;;;5045082;28;20404;-83
2021/07/28 01:41:57;;;;;;;6.50;5.80;;;19.30;99.90;;;;;;5036876;28;20427;-84
2021/07/28 01:44:26;;;;;;;7.47;6.77;;;19.20;99.90;;;;;;5036126;28;20444;-84
2021/07/28 01:46:54;;;;;;;8.30;7.23;;;19.10;99.90;;;;;;5035767;28;20410;-83
2021/07/28 01:49:22;;;;;;;6.37;5.77;;;19.20;99.90;;;;;;5036175;28;20441;-83
2021/07/28 01:51:50;;;;;;;5.53;4.83;;;19.40;99.90;;;;;;5031598;28;20491;-84
2021/07/28 01:54:18;;;;;;;7.50;6.77;;;19.40;99.90;;;;;;5019548;28;20488;-84
2021/07/28 01:56:48;;;;;;;7.20;6.50;;;19.40;99.90;;;;;;5019417;28;20412;-84
2021/07/28 01:59:16;;;;;;;9.53;7.73;;;19.20;99.90;;;;;;5019016;28;20468;-84
2021/07/28 02:01:45;;;;;;;8.07;7.00;;;19.20;99.90;;;;;;5020327;28;20437;-84
2021/07/28 02:04:13;;;;;;;7.83;6.70;;;19.30;99.90;;;;;;5035106;28;20454;-84
2021/07/28 02:06:41;;;;;;;8.73;6.87;;;19.20;99.90;;;;;;5019306;28;20415;-83
2021/07/28 02:09:12;;;;;;;9.10;7.40;;;19.50;99.90;;;;;;5026341;28;20391;-84
2021/07/28 02:11:40;;;;;;;8.17;6.07;;;19.50;99.90;;;;;;5023668;28;20961;-84
2021/07/28 02:14:09;;;;;;;6.20;5.53;;;19.70;99.90;;;;;;5039501;28;20448;-84
2021/07/28 02:16:37;;;;;;;7.17;6.47;;;19.70;99.90;;;;;;5023201;28;20990;-84
2021/07/28 02:19:07;;;;;;;6.77;6.07;;;19.70;99.90;;;;;;5024070;28;20889;-84
2021/07/28 02:21:35;;;;;;;8.43;6.53;;;19.70;99.90;;;;;;5023599;28;20524;-84
2021/07/28 02:24:03;;;;;;;7.87;5.57;;;19.80;99.90;;;;;;5021989;28;20411;-83
2021/07/28 02:26:31;;;;;;;6.90;6.20;;;19.70;99.90;;;;;;5022124;28;20428;-84
2021/07/28 02:29:00;;;;;;;6.87;5.80;;;19.50;99.90;;;;;;5039711;28;20774;-83
2021/07/28 02:31:29;;;;;;;7.50;6.00;;;19.40;99.90;;;;;;5019588;28;20679;-83
2021/07/28 02:33:57;;;;;;;7.67;6.23;;;19.50;99.90;;;;;;5035318;28;20400;-84
2021/07/28 02:36:25;;;;;;;8.00;7.20;;;19.60;99.90;;;;;;5019143;28;20477;-84
2021/07/28 02:38:53;;;;;;;8.83;6.97;;;19.70;99.90;;;;;;5022154;28;20818;-84
2021/07/28 02:41:21;;;;;;;8.00;7.20;;;19.70;99.90;;;;;;5023477;28;20428;-84
2021/07/28 02:43:49;;;;;;;6.43;5.83;;;19.70;99.90;;;;;;5040277;28;20416;-84
2021/07/28 02:46:21;;;;;;;6.33;5.50;;;19.80;99.90;;;;;;5025156;28;20432;-84
2021/07/28 02:48:50;;;;;;;7.67;5.80;;;19.60;99.90;;;;;;5032884;28;20468;-83
2021/07/28 02:51:18;;;;;;;7.53;6.27;;;19.40;99.90;;;;;;5035820;28;20439;-83
2021/07/28 02:53:46;;;;;;;6.57;5.97;;;19.30;99.90;;;;;;5036443;28;20429;-83
2021/07/28 02:56:14;;;;;;;6.20;5.53;;;19.20;99.90;;;;;;5031984;28;20461;-83
2021/07/28 02:58:43;;;;;;;7.47;5.93;;;19.10;99.90;;;;;;5020676;28;20426;-83
2021/07/28 03:01:11;;;;;;;5.67;5.17;;;19.30;99.90;;;;;;5035820;28;20475;-83
2021/07/28 03:03:39;;;;;;;7.30;6.57;;;19.30;99.90;;;;;;5035415;28;20404;-83
2021/07/28 03:06:09;;;;;;;7.57;5.80;;;19.30;99.90;;;;;;5018209;28;20814;-83
2021/07/28 03:08:37;;;;;;;6.93;6.10;;;19.40;99.90;;;;;;5017988;28;20910;-83
2021/07/28 03:11:05;;;;;;;5.90;5.30;;;19.50;99.90;;;;;;5018365;28;20477;-84
2021/07/28 03:13:33;;;;;;;6.17;5.60;;;19.60;99.90;;;;;;5016873;28;20410;-83
2021/07/28 03:16:08;;;;;;;6.30;5.67;;;19.90;99.90;;;;;;5017035;28;20476;-83
2021/07/28 03:18:36;;;;;;;6.03;5.50;;;19.90;99.90;;;;;;5017650;28;20447;-84
2021/07/28 03:21:05;;;;;;;10.20;5.33;;;19.90;99.90;;;;;;5017481;28;20954;-84
2021/07/28 03:23:34;;;;;;;6.23;5.63;;;19.90;99.90;;;;;;5033365;28;20428;-83
2021/07/28 03:26:03;;;;;;;8.40;6.17;;;20.20;99.90;;;;;;5034076;28;20424;-83
2021/07/28 03:28:31;;;;;;;6.87;6.17;;;20.40;99.90;;;;;;5018544;28;20396;-84
2021/07/28 03:30:59;;;;;;;6.63;6.00;;;20.60;99.90;;;;;;5020642;28;20424;-84
2021/07/28 03:33:27;;;;;;;6.67;5.20;;;20.60;99.90;;;;;;5017788;28;20900;-83
2021/07/28 03:35:55;;;;;;;7.07;5.90;;;20.70;99.90;;;;;;5016475;28;20443;-83
2021/07/28 03:38:23;;;;;;;6.13;5.53;;;20.70;99.90;;;;;;5017225;28;20493;-84
2021/07/28 03:40:53;;;;;;;6.27;5.73;;;20.50;99.90;;;;;;5015300;28;20457;-84
2021/07/28 03:43:21;;;;;;;8.40;5.80;;;20.30;99.90;;;;;;5016359;28;20928;-84
2021/07/28 03:45:49;;;;;;;7.27;5.57;;;20.30;99.90;;;;;;5018378;28;20466;-83
2021/07/28 03:48:17;;;;;;;7.53;5.93;;;20.30;99.90;;;;;;5018792;28;20927;-84
2021/07/28 03:50:45;;;;;;;6.70;5.30;;;20.40;99.90;;;;;;5020969;28;20798;-84
2021/07/28 03:53:13;;;;;;;7.70;5.67;;;20.30;99.90;;;;;;5018923;28;20517;-83
2021/07/28 03:55:42;;;;;;;7.80;6.10;;;20.20;99.90;;;;;;5020356;28;20503;-84
2021/07/28 03:58:11;;;;;;;6.83;6.20;;;20.10;99.90;;;;;;5020609;28;20420;-84
2021/07/28 04:00:39;;;;;;;6.93;5.83;;;20.30;99.90;;;;;;5020902;28;20491;-84
2021/07/28 04:03:07;;;;;;;8.57;6.00;;;20.30;99.90;;;;;;5021632;28;20392;-84
2021/07/28 04:05:36;;;;;;;6.13;5.37;;;20.40;99.90;;;;;;5036499;28;20415;-83
2021/07/28 04:08:04;;;;;;;6.83;6.20;;;20.30;99.90;;;;;;5020641;28;20947;-84
2021/07/28 04:10:32;;;;;;;5.67;5.17;;;20.30;99.90;;;;;;5035766;28;20439;-84
2021/07/28 04:13:02;;;;;;;6.73;5.43;;;20.30;99.90;;;;;;5002746;28;20480;-84
2021/07/28 04:15:31;;;;;;;6.23;5.53;;;20.40;99.90;;;;;;5039998;28;20473;-83
2021/07/28 04:17:59;;;;;;;6.37;5.53;;;20.50;99.90;;;;;;5037402;28;20409;-83
2021/07/28 04:20:27;;;;;;;6.93;5.60;;;20.50;99.90;;;;;;5037723;28;20438;-83
2021/07/28 04:22:55;;;;;;;5.70;5.20;;;20.50;99.90;;;;;;5031288;28;20427;-83
2021/07/28 04:25:26;;;;;;;6.43;5.27;;;20.50;99.90;;;;;;5017204;28;20829;-84
2021/07/28 04:27:54;;;;;;;8.17;6.30;;;20.50;99.90;;;;;;5016563;28;20453;-84
2021/07/28 04:30:23;;;;;;;7.13;5.70;;;20.60;99.90;;;;;;5035204;28;20502;-83
2021/07/28 04:32:52;;;;;;;4.97;4.23;;;20.70;99.90;;;;;;5020517;28;20448;-83
2021/07/28 04:35:20;;;;;;;6.57;4.17;;;20.70;99.90;;;;;;5020847;28;20429;-84
2021/07/28 04:37:49;;;;;;;5.87;5.20;;;20.70;99.90;;;;;;5024111;28;20424;-84
2021/07/28 04:40:17;;;;;;;6.40;5.57;;;20.80;99.90;;;;;;5045151;28;20536;-83
2021/07/28 04:42:45;;;;;;;7.70;5.20;;;20.90;99.90;;;;;;5041871;28;20777;-84
2021/07/28 04:45:14;;;;;;;7.57;4.70;;;20.80;99.90;;;;;;5025556;28;20448;-83
2021/07/28 04:47:42;;;;;;;5.43;4.93;;;20.70;99.90;;;;;;5035380;28;20420;-84
2021/07/28 04:50:12;;;;;;;6.80;4.67;;;20.60;99.90;;;;;;5035577;28;20520;-83
2021/07/28 04:52:41;;;;;;;6.00;5.30;;;20.70;99.90;;;;;;5036266;28;20409;-83
2021/07/28 04:55:09;;;;;;;6.43;5.50;;;20.70;99.90;;;;;;5036094;28;20424;-83
2021/07/28 04:57:37;;;;;;;6.17;5.30;;;20.70;99.90;;;;;;5034837;28;20439;-83
2021/07/28 05:00:07;;;;;;;4.60;4.20;;;20.80;99.90;;;;;;5035879;28;20419;-83
2021/07/28 05:02:35;;;;;;;8.20;6.20;;;20.80;99.90;;;;;;5034998;28;20419;-84
2021/07/28 05:05:04;;;;;;;7.60;5.00;;;20.80;99.90;;;;;;5036328;28;20487;-83
2021/07/28 05:07:33;;;;;;;4.87;4.23;;;20.70;99.90;;;;;;5034492;28;20495;-84
2021/07/28 05:13:03;;;;;;;6.97;5.03;;;20.60;99.90;;;;;;4953440;28;20440;-76
2021/07/28 05:15:32;;;;;;;6.50;4.77;;;20.50;99.90;;;;;;4972910;28;20568;-76
2021/07/28 05:18:00;;;;;;;4.40;4.00;;;20.50;99.90;;;;;;4955653;28;20440;-77
2021/07/28 05:20:28;;;;;;;5.43;4.57;;;20.50;99.90;;;;;;4966296;28;20847;-76
2021/07/28 05:22:58;;;;;;;5.43;4.23;;;20.60;99.90;;;;;;4935424;29;20475;-77
2021/07/28 05:25:28;;;;;;;5.53;4.40;;;20.80;99.90;;;;;;4935170;29;20436;-76
2021/07/28 05:27:56;;;;;;;5.30;4.63;;;20.90;99.90;;;;;;4936217;29;20447;-74
2021/07/28 05:30:24;;;;;;;7.97;6.07;;;20.90;99.90;;;;;;4936268;29;20474;-76
2021/07/28 05:32:53;;;;;;;5.43;4.70;;;21.00;99.90;;;;;;4952854;29;20475;-76
2021/07/28 05:35:21;;;;;;;5.83;5.00;;;21.10;99.90;;;;;;4953261;29;20932;-76
2021/07/28 05:37:49;;;;;;;7.17;5.23;;;21.30;99.90;;;;;;4952704;29;20916;-76
2021/07/28 05:40:19;;;;;;;6.37;5.53;;;21.30;99.90;;;;;;4952339;28;20513;-76
2021/07/28 05:42:47;;;;;;;6.10;5.03;;;21.10;99.90;;;;;;4956269;28;20458;-76
2021/07/28 05:45:16;;;;;;;8.30;5.63;;;21.00;99.90;;;;;;4957719;29;20452;-77
2021/07/28 05:47:45;;;;;;;6.30;5.70;;;21.00;99.90;;;;;;4962128;29;20926;-76
2021/07/28 05:50:14;;;;;;;7.10;5.20;;;20.90;99.90;;;;;;4942833;29;20465;-77
2021/07/28 05:52:44;;;;;;;9.40;5.70;;;20.70;99.90;;;;;;4954712;29;20955;-75
2021/07/28 05:55:13;;;;;;;7.17;5.33;;;20.70;99.90;;;;;;4951088;29;20760;-75
2021/07/28 05:57:42;;;;;;;10.50;5.57;;;20.70;99.90;;;;;;4956455;29;20540;-77
2021/07/28 06:00:12;;;;;;;7.13;6.43;;;20.70;99.90;;;;;;4948136;29;20548;-75
2021/07/28 06:02:41;;;;;;;8.60;5.67;;;20.90;99.90;;;;;;4936389;29;20809;-76
2021/07/28 06:05:10;;;;;;;5.47;4.87;;;20.90;99.90;;;;;;4935729;29;20414;-75
2021/07/28 06:07:38;;;;;;;7.07;5.53;;;21.10;99.90;;;;;;4938159;29;20488;-76
2021/07/28 06:10:08;;;;;;;7.60;5.53;;;21.10;99.90;;;;;;4940378;29;20476;-76
2021/07/28 06:12:36;;;;;;;7.33;6.27;;;21.30;99.90;;;;;;4947394;29;20415;-76
2021/07/28 06:15:07;;;;;;;10.83;7.30;;;21.40;99.90;;;;;;4955079;29;20560;-75
2021/07/28 06:17:36;;;;;;;7.83;4.87;;;21.40;99.90;;;;;;4947476;29;20483;-77
2021/07/28 06:20:05;;;;;;;6.50;5.80;;;21.50;99.90;;;;;;4948837;29;20466;-76
2021/07/28 06:22:34;;;;;;;4.43;3.70;;;21.70;99.90;;;;;;4953122;29;20449;-74
2021/07/28 06:25:03;;;;;;;4.23;3.73;;;21.70;99.90;;;;;;4956237;29;20447;-77
2021/07/28 06:27:31;;;;;;;4.97;4.43;;;21.80;99.90;;;;;;4971717;29;20447;-75
2021/07/28 06:30:00;;;;;;;4.80;3.80;;;21.80;99.90;;;;;;4956188;28;20451;-73
2021/07/28 06:32:29;;;;;;;7.80;4.90;;;21.70;99.90;;;;;;4953420;29;20487;-75
2021/07/28 06:34:57;;;;;;;4.20;3.80;;;21.50;99.90;;;;;;4970491;28;20485;-73
2021/07/28 06:37:26;;;;;;;7.60;5.00;;;21.40;99.90;;;;;;4970488;29;20498;-73
2021/07/28 06:39:55;;;;;;;5.87;4.37;;;21.30;99.90;;;;;;4953122;28;20418;-76
2021/07/28 06:42:23;;;;;;;7.20;3.90;;;21.40;99.90;;;;;;4955355;29;20431;-75
2021/07/28 06:44:52;;;;;;;4.40;4.00;;;21.50;99.90;;;;;;4962243;29;20464;-77
2021/07/28 06:47:21;;;;;;;5.33;4.17;;;21.60;99.90;;;;;;4969760;29;20416;-78
2021/07/28 06:49:58;;;;;;;5.83;4.70;;;21.80;99.90;;;;;;4970895;28;20426;-77
2021/07/28 06:53:35;;;;;;;6.30;4.50;;;21.90;99.90;;;;;;4970803;28;20422;-76
2021/07/28 06:56:20;;;;;;;6.23;5.10;;;22.00;99.90;;;;;;4951401;29;20452;-77
2021/07/28 06:58:50;;;;;;;5.00;4.43;;;22.00;99.90;;;;;;4965393;29;20479;-77
2021/07/28 07:01:22;;;;;;;5.30;4.77;;;22.10;99.90;;;;;;4950370;29;20471;-79
2021/07/28 07:03:55;;;;;;;5.00;4.00;;;22.10;99.90;;;;;;4952528;29;20451;-77
2021/07/28 07:06:27;;;;;;;6.63;4.63;;;22.10;99.90;;;;;;4968630;29;20463;-79
2021/07/28 07:08:55;;;;;;;5.67;5.10;;;22.00;99.90;;;;;;4968981;29;20431;-78
2021/07/28 07:11:23;;;;;;;5.40;4.77;;;21.70;99.90;;;;;;4950714;29;20471;-79
2021/07/28 07:13:52;;;;;;;6.60;4.53;;;21.70;99.90;;;;;;4953034;29;20476;-76
2021/07/28 07:16:20;;;;;;;8.50;4.90;;;21.70;99.90;;;;;;4967559;29;20984;-79
2021/07/28 07:18:48;;;;;;;5.43;4.93;;;21.70;99.90;;;;;;4963131;29;20994;-77
2021/07/28 07:21:17;;;;;;;5.90;4.73;;;21.60;99.90;;;;;;4962743;28;20530;-77
2021/07/28 07:23:47;;;;;;;5.80;4.23;;;21.50;99.90;;;;;;4962371;29;20841;-77
2021/07/28 07:26:15;;;;;;;6.17;5.17;;;21.70;99.90;;;;;;4936511;29;20526;-76
2021/07/28 07:28:43;;;;;;;5.67;4.90;;;21.80;99.90;;;;;;4953633;29;20455;-77
2021/07/28 07:31:12;;;;;;;6.20;4.20;;;22.20;99.90;;;;;;4952241;29;21036;-75
2021/07/28 07:33:41;;;;;;;5.20;4.20;;;22.30;99.90;;;;;;4952417;29;20487;-76
2021/07/28 07:36:11;;;;;;;5.40;4.50;;;21.90;99.90;;;;;;4952285;29;20398;-78
2021/07/28 07:38:40;;;;;;;5.17;4.67;;;21.60;99.90;;;;;;4959260;29;20498;-78
2021/07/28 07:41:10;;;;;;;4.90;3.80;;;21.60;99.90;;;;;;4961750;28;20494;-80
2021/07/28 07:43:38;;;;;;;5.20;4.23;;;21.60;99.90;;;;;;4961989;29;20890;-78
2021/07/28 07:46:07;;;;;;;5.03;4.40;;;21.80;99.90;;;;;;4953655;29;20474;-76
2021/07/28 07:48:36;;;;;;;5.60;4.27;;;21.90;99.90;;;;;;4954675;29;20398;-78
2021/07/28 07:51:04;;;;;;;5.00;4.23;;;22.10;99.90;;;;;;4937394;29;20514;-76
2021/07/28 07:53:32;;;;;;;4.90;4.40;;;22.20;99.90;;;;;;4954066;29;20495;-72
2021/07/28 07:56:05;;;;;;;5.20;4.00;;;22.30;99.90;;;;;;4953495;29;20406;-76
2021/07/28 07:58:35;;;;;;;4.80;3.90;;;22.50;99.90;;;;;;4961138;29;20463;-77
2021/07/28 08:01:08;;;;;;;5.47;4.93;;;22.90;99.90;;;;;;4955269;29;20493;-76
2021/07/28 08:03:37;;;;;;;6.60;4.73;;;23.50;99.90;;;;;;4958752;29;20531;-78
2021/07/28 08:06:06;;;;;;;4.33;3.93;;;23.80;99.90;;;;;;4939015;29;20444;-77
2021/07/28 08:08:36;;;;;;;5.83;4.87;;;24.10;99.90;;;;;;4936974;29;20927;-77
2021/07/28 08:11:10;;;;;;;5.20;4.33;;;23.90;99.90;;;;;;4937474;29;20476;-78
2021/07/28 08:14:44;;;;;;;6.33;4.90;;;23.90;99.90;;;;;;5069768;23;20480;-85
2021/07/28 08:17:52;;;;;;;5.67;4.13;;;24.10;99.90;;;;;;5025849;28;20424;-83
2021/07/28 08:20:36;;;;;;;6.50;4.00;;;24.10;99.90;;;;;;5014822;28;20487;-83
2021/07/28 08:23:05;;;;;;;5.73;4.20;;;24.20;99.90;;;;;;5042820;28;20435;-82
2021/07/28 08:25:34;;;;;;;4.93;4.43;;;24.10;99.90;;;;;;5025764;28;20407;-83
2021/07/28 08:28:02;;;;;;;5.80;4.63;;;24.20;99.90;;;;;;5040954;28;20441;-83
2021/07/28 08:30:31;;;;;;;7.57;5.03;;;24.30;99.90;;;;;;5043107;28;20412;-83
2021/07/28 08:32:59;;;;;;;9.77;5.60;;;24.30;99.90;;;;;;5025696;28;20461;-83
2021/07/28 08:35:28;;;;;;;4.70;4.30;;;24.90;99.90;;;;;;5041620;28;20533;-84
2021/07/28 08:37:58;;;;;;;5.57;4.60;;;25.40;99.90;;;;;;5026379;28;20519;-85
2021/07/28 08:40:27;;;;;;;5.73;5.07;;;25.10;99.90;;;;;;5042978;28;20456;-86
2021/07/28 08:42:56;;;;;;;7.00;4.93;;;25.00;99.90;;;;;;5040891;28;20435;-84
2021/07/28 08:45:24;;;;;;;5.00;4.50;;;24.90;99.90;;;;;;5041252;28;20508;-83
2021/07/28 08:47:53;;;;;;;4.83;3.30;;;24.80;99.90;;;;;;5044556;28;20445;-85
2021/07/28 08:50:22;;;;;;;4.70;4.20;;;24.70;99.90;;;;;;5043730;28;20429;-84
2021/07/28 08:52:52;;;;;;;5.70;4.40;;;25.00;99.90;;;;;;5027125;28;20431;-84
2021/07/28 08:55:22;;;;;;;8.77;4.53;;;25.00;99.90;;;;;;5026821;28;20481;-82
2021/07/28 08:57:51;;;;;;;5.90;4.27;;;25.10;99.90;;;;;;5042351;28;20461;-83
2021/07/28 09:00:19;;;;;;;5.97;4.47;;;25.00;99.90;;;;;;5042032;28;20478;-83
2021/07/28 09:02:49;;;;;;;4.63;3.80;;;24.80;99.90;;;;;;5027366;28;20453;-84
2021/07/28 09:05:18;;;;;;;5.17;4.00;;;25.00;99.90;;;;;;5038145;28;20807;-84
2021/07/28 09:07:54;;;;;;;6.17;5.10;;;24.70;99.90;;;;;;5036827;28;20453;-83
2021/07/28 09:10:26;;;;;;;5.53;5.00;;;24.20;99.90;;;;;;5018024;28;20437;-84
2021/07/28 09:12:55;;;;;;;4.23;3.67;;;24.20;99.90;;;;;;5019545;28;20449;-83
2021/07/28 09:15:36;;;;;;;5.80;3.93;;;24.30;99.90;;;;;;5019972;28;20437;-84
2021/07/28 09:18:36;;;;;;;8.63;4.77;;;24.50;99.90;;;;;;5043202;28;20465;-83
2021/07/28 09:21:07;;;;;;;5.10;4.17;;;25.00;99.90;;;;;;5037628;28;20431;-83
2021/07/28 09:23:38;;;;;;;4.13;3.60;;;25.10;99.90;;;;;;5029716;28;20455;-85
2021/07/28 09:26:42;;;;;;;4.33;3.47;;;25.00;99.90;;;;;;5028591;28;20643;-84
2021/07/28 09:29:11;;;;;;;5.30;3.87;;;24.80;99.90;;;;;;5024961;28;20413;-84
2021/07/28 09:31:42;;;;;;;3.53;3.23;;;24.70;99.90;;;;;;5039638;28;20524;-84
2021/07/28 09:34:41;;;;;;;5.40;3.90;;;24.70;99.90;;;;;;5024376;28;20421;-83
2021/07/28 09:37:14;;;;;;;4.20;3.10;;;25.00;99.90;;;;;;5023145;28;20463;-85
2021/07/28 09:39:45;;;;;;;4.77;3.50;;;25.10;99.90;;;;;;5022370;28;20465;-84
2021/07/28 09:42:17;;;;;;;3.83;3.43;;;25.10;99.90;;;;;;5021458;28;20460;-84
2021/07/28 09:44:47;;;;;;;4.00;3.60;;;25.30;99.90;;;;;;5039071;28;20432;-84
2021/07/28 09:47:18;;;;;;;4.13;3.77;;;25.40;99.90;;;;;;5040595;28;20476;-84
2021/07/28 09:49:48;;;;;;;4.20;3.80;;;25.70;99.90;;;;;;5024302;28;20417;-84
2021/07/28 09:52:22;;;;;;;5.57;3.30;;;25.70;99.90;;;;;;5039909;28;20488;-83
2021/07/28 09:54:53;;;;;;;5.80;4.53;;;25.80;99.90;;;;;;5024788;28;20432;-83
2021/07/28 09:57:24;;;;;;;3.00;2.67;;;25.80;99.90;;;;;;5041586;28;20425;-83
2021/07/28 09:59:55;;;;;;;3.33;3.03;;;25.60;99.90;;;;;;5024875;28;20457;-83
2021/07/28 10:02:25;;;;;;;3.73;3.40;;;25.70;99.90;;;;;;5024143;28;20439;-84
2021/07/28 10:04:55;;;;;;;3.57;2.90;;;25.90;99.90;;;;;;5025199;28;20454;-84
2021/07/28 10:07:25;;;;;;;4.30;3.30;;;25.50;99.90;;;;;;5041344;28;20939;-83
2021/07/28 10:10:04;;;;;;;3.10;2.73;;;25.70;99.90;;;;;;5043579;28;20464;-84
2021/07/28 10:12:35;;;;;;;3.30;3.00;;;26.00;99.90;;;;;;5033110;28;20461;-84
2021/07/28 10:15:05;;;;;;;3.70;3.00;;;25.80;99.90;;;;;;5041077;28;20460;-85
2021/07/28 10:17:35;;;;;;;6.00;3.50;;;25.80;99.90;;;;;;5041631;28;20758;-84
2021/07/28 10:20:04;;;;;;;3.97;3.03;;;26.20;99.90;;;;;;5041764;28;20461;-83
2021/07/28 10:22:33;;;;;;;4.63;4.13;;;26.00;99.90;;;;;;5028164;28;20556;-85
2021/07/28 10:25:04;;;;;;;3.53;3.10;;;25.90;99.90;;;;;;5046973;28;20456;-83
2021/07/28 10:27:40;;;;;;;4.30;3.67;;;26.00;99.90;;;;;;5044499;28;20456;-84
2021/07/28 10:30:14;;;;;;;3.53;3.13;;;26.20;99.90;;;;;;5046794;28;20440;-83
2021/07/28 10:32:45;;;;;;;3.43;3.13;;;26.50;99.90;;;;;;5030509;28;20453;-84
2021/07/28 10:35:23;;;;;;;3.30;3.00;;;26.50;99.90;;;;;;5024415;28;20523;-82
2021/07/28 10:37:53;;;;;;;4.23;3.43;;;26.40;99.90;;;;;;5027983;28;20479;-83
2021/07/28 10:40:51;;;;;;;3.73;3.37;;;26.30;99.90;;;;;;5027205;28;20496;-81
2021/07/28 10:43:21;;;;;;;3.67;2.67;;;26.30;99.90;;;;;;5023082;28;20460;-84
2021/07/28 10:45:58;;;;;;;7.33;2.80;;;26.50;99.90;;;;;;5063974;28;20444;-83
2021/07/28 10:48:52;;;;;;;4.40;2.90;;;26.50;99.90;;;;;;5070204;28;20448;-82
2021/07/28 10:51:50;;;;;;;4.80;3.27;;;26.80;99.90;;;;;;5048996;28;20468;-84
2021/07/28 10:54:20;;;;;;;3.50;3.13;;;26.90;99.90;;;;;;5071390;28;20436;-82
2021/07/28 10:57:06;;;;;;;3.93;3.43;;;27.00;99.90;;;;;;5069651;28;20440;-81
2021/07/28 10:59:42;;;;;;;4.60;3.97;;;27.00;99.90;;;;;;5051506;28;20464;-81
2021/07/28 11:02:11;;;;;;;4.07;2.90;;;27.10;99.90;;;;;;5069089;28;20468;-81
2021/07/28 11:04:41;;;;;;;6.03;3.77;;;26.80;99.90;;;;;;5051945;28;20436;-81
2021/07/28 11:07:09;;;;;;;4.80;3.63;;;27.10;99.90;;;;;;5066955;28;20435;-81
2021/07/28 11:09:38;;;;;;;4.33;3.63;;;27.20;99.90;;;;;;5052766;28;20500;-83
2021/07/28 11:12:11;;;;;;;5.60;2.90;;;27.00;99.90;;;;;;5066063;28;20475;-82
2021/07/28 11:14:43;;;;;;;6.10;3.00;;;26.80;99.90;;;;;;5051865;28;20440;-84
2021/07/28 11:17:14;;;;;;;4.47;3.77;;;26.90;99.90;;;;;;5049669;28;20432;-82
2021/07/28 11:19:49;;;;;;;3.80;3.20;;;26.60;99.90;;;;;;5049580;28;20468;-82
2021/07/28 11:22:25;;;;;;;3.93;2.80;;;26.50;99.90;;;;;;5051595;28;20455;-82
2021/07/28 11:24:58;;;;;;;3.17;2.87;;;26.70;99.90;;;;;;5066847;28;20435;-84
2021/07/28 11:27:26;;;;;;;4.47;2.40;;;26.80;99.90;;;;;;5048375;28;20436;-83
2021/07/28 11:32:48;;;;;;;4.20;3.80;;;27.10;99.90;;;;;;5086844;27;20573;-76
2021/07/28 11:35:18;;;;;;;4.60;2.80;;;27.50;99.90;;;;;;5085735;28;20438;-76
2021/07/28 11:37:46;;;;;;;3.27;2.97;;;27.50;99.90;;;;;;5087557;28;20432;-77
2021/07/28 11:40:15;;;;;;;4.67;3.67;;;27.10;99.90;;;;;;5093887;28;20426;-78
2021/07/28 11:42:43;;;;;;;3.37;2.97;;;26.60;99.90;;;;;;5080954;28;20481;-79
2021/07/28 11:45:11;;;;;;;3.83;2.90;;;26.80;99.90;;;;;;5070935;28;20422;-73
2021/07/28 11:47:40;;;;;;;3.37;2.80;;;26.80;99.90;;;;;;5066980;28;20433;-74
2021/07/28 11:50:11;;;;;;;5.07;3.33;;;26.70;99.90;;;;;;5067335;28;20493;-75
2021/07/28 11:52:47;;;;;;;4.47;3.77;;;27.20;99.90;;;;;;5067025;28;20493;-73
2021/07/28 11:55:23;;;;;;;3.33;2.80;;;27.50;99.90;;;;;;5067103;28;20422;-74
2021/07/28 11:57:51;;;;;;;3.83;2.67;;;27.00;99.90;;;;;;5066282;28;20425;-73
2021/07/28 12:00:30;;;;;;;3.50;3.20;;;26.60;99.90;;;;;;5066674;28;20488;-73
2021/07/28 12:03:24;;;;;;;3.87;3.47;;;25.80;99.90;;;;;;5067047;28;20433;-74
2021/07/28 12:06:04;;;;;;;3.63;2.63;;;25.80;99.90;;;;;;5065781;28;20833;-76
2021/07/28 12:08:34;;;;;;;3.43;3.00;;;26.20;99.90;;;;;;5067065;28;20476;-74
2021/07/28 12:11:06;;;;;;;3.10;2.80;;;26.70;99.90;;;;;;5066895;28;20561;-74
2021/07/28 12:13:45;;;;;;;4.17;3.20;;;27.10;99.90;;;;;;5066838;28;20434;-73
2021/07/28 12:16:14;;;;;;;2.50;2.10;;;27.30;99.90;;;;;;5066758;28;20846;-72
2021/07/28 12:18:44;;;;;;;4.70;3.30;;;27.20;99.90;;;;;;5066560;28;20410;-73
2021/07/28 12:21:14;;;;;;;3.73;3.43;;;26.80;99.90;;;;;;5066859;28;20736;-75
2021/07/28 12:23:50;;;;;;;4.10;2.63;;;26.90;99.90;;;;;;5066837;28;20426;-75
2021/07/28 12:26:38;;;;;;;3.10;2.80;;;26.90;99.90;;;;;;5066288;28;20606;-73
2021/07/28 12:29:06;;;;;;;3.27;2.70;;;27.00;99.90;;;;;;5066039;28;20427;-74
2021/07/28 12:31:34;;;;;;;4.33;3.27;;;26.80;99.90;;;;;;5066175;28;20465;-74
2021/07/28 12:34:20;;;;;;;5.00;3.50;;;26.70;99.90;;;;;;5066196;28;20457;-74
2021/07/28 12:36:50;;;;;;;2.50;2.27;;;26.80;99.90;;;;;;5066353;28;20767;-74
2021/07/28 12:39:18;;;;;;;6.07;3.40;;;26.90;99.90;;;;;;5066116;28;20913;-74
2021/07/28 12:41:46;;;;;;;3.47;2.83;;;26.90;99.90;;;;;;5065969;28;20442;-74
2021/07/28 12:44:15;;;;;;;3.27;2.33;;;26.70;99.90;;;;;;5052179;28;20398;-75
2021/07/28 12:46:43;;;;;;;3.87;3.13;;;26.80;99.90;;;;;;5052887;28;20427;-73
2021/07/28 12:49:11;;;;;;;3.53;3.00;;;27.20;99.90;;;;;;5052458;28;20461;-74
2021/07/28 12:51:39;;;;;;;3.10;2.70;;;27.30;99.90;;;;;;5052911;28;20467;-75
2021/07/28 12:54:09;;;;;;;4.33;2.90;;;27.30;99.90;;;;;;5052876;28;20426;-74
2021/07/28 12:56:38;;;;;;;3.80;3.30;;;27.30;99.90;;;;;;5052731;28;20565;-74
2021/07/28 12:59:07;;;;;;;5.60;2.67;;;27.10;99.90;;;;;;5052353;28;20424;-71
2021/07/28 13:01:35;;;;;;;4.10;3.00;;;26.60;99.90;;;;;;5052906;28;20479;-73
2021/07/28 13:04:07;;;;;;;5.57;3.07;;;26.50;99.90;;;;;;5052379;28;20465;-73
2021/07/28 13:06:44;;;;;;;3.73;2.63;;;26.60;99.90;;;;;;5052239;28;20423;-74
2021/07/28 13:09:13;;;;;;;3.93;3.00;;;26.70;99.90;;;;;;5052379;28;20810;-73
2021/07/28 13:11:41;;;;;;;4.33;3.37;;;26.90;99.90;;;;;;5052738;28;20463;-73
2021/07/28 13:14:10;;;;;;;6.20;3.50;;;26.80;99.90;;;;;;5052024;28;20423;-74